createdAt,value
2023-02-04T00:00:07.543Z,3.58
2023-02-04T00:02:34.738Z,3.92
2023-02-04T00:05:01.738Z,3.38
2023-02-04T00:07:28.523Z,4.13
2023-02-04T00:09:55.423Z,4.57
2023-02-04T00:12:22.656Z,3.72
2023-02-04T00:14:49.498Z,4.13
2023-02-04T00:17:16.562Z,3.55
2023-02-04T00:19:43.376Z,3.83
2023-02-04T00:22:10.309Z,4.15
2023-02-04T00:24:37.903Z,3.72
2023-02-04T00:27:05.998Z,4.45
2023-02-04T00:29:32.778Z,4.97
2023-02-04T00:31:59.725Z,5.40
2023-02-04T00:34:26.855Z,4.30
2023-02-04T00:36:53.537Z,5.15
2023-02-04T00:39:20.289Z,5.40
2023-02-04T00:41:47.026Z,5.63
2023-02-04T00:44:16.660Z,6.00
2023-02-04T00:46:43.590Z,5.78
2023-02-04T00:49:11.425Z,5.72
2023-02-04T00:51:40.296Z,6.15
2023-02-04T00:54:07.639Z,6.30
2023-02-04T00:56:35.114Z,6.07
2023-02-04T00:59:02.226Z,6.60
2023-02-04T01:01:29.482Z,6.13
2023-02-04T01:03:56.400Z,6.78
2023-02-04T01:06:23.163Z,6.03
2023-02-04T01:08:49.947Z,7.05
2023-02-04T01:11:17.165Z,6.10
2023-02-04T01:13:43.883Z,7.10
2023-02-04T01:16:10.707Z,6.50
2023-02-04T01:18:37.542Z,6.38
2023-02-04T01:21:04.733Z,6.03
2023-02-04T01:23:31.462Z,6.50
2023-02-04T01:25:58.303Z,6.40
2023-02-04T01:28:25.623Z,6.75
2023-02-04T01:30:52.542Z,6.53
2023-02-04T01:33:19.429Z,6.70
2023-02-04T01:35:46.199Z,7.22
2023-02-04T01:38:13.013Z,6.70
2023-02-04T01:40:40.416Z,7.35
2023-02-04T01:43:07.433Z,7.80
2023-02-04T01:45:35.621Z,8.10
2023-02-04T01:48:04.334Z,7.72
2023-02-04T01:50:32.052Z,7.97
2023-02-04T01:52:59.836Z,7.97
2023-02-04T01:55:30.472Z,8.05
2023-02-04T01:57:58.769Z,8.75
2023-02-04T02:00:32.849Z,8.77
2023-02-04T02:03:00.588Z,8.90
2023-02-04T02:05:39.233Z,8.35
2023-02-04T02:08:07.578Z,9.63
2023-02-04T02:10:36.830Z,9.05
2023-02-04T02:13:04.994Z,9.55
2023-02-04T02:15:31.817Z,9.77
2023-02-04T02:17:58.861Z,9.25
2023-02-04T02:20:28.337Z,8.60
2023-02-04T02:23:10.196Z,10.18
2023-02-04T02:25:37.376Z,9.43
2023-02-04T02:28:09.870Z,10.35
2023-02-04T02:30:37.287Z,10.57
2023-02-04T02:33:05.959Z,9.98
2023-02-04T02:35:33.189Z,11.38
2023-02-04T02:37:59.964Z,13.57
2023-02-04T02:40:27.130Z,11.18
2023-02-04T02:42:54.652Z,12.85
2023-02-04T02:45:26.023Z,11.75
2023-02-04T02:47:54.118Z,11.52
2023-02-04T02:50:24.576Z,12.95
2023-02-04T02:52:52.185Z,12.23
2023-02-04T02:55:21.775Z,13.50
2023-02-04T02:57:49.513Z,14.05
2023-02-04T03:00:23.959Z,12.57
2023-02-04T03:03:06.270Z,12.43
2023-02-04T03:05:37.328Z,13.20
2023-02-04T03:08:05.060Z,13.35
2023-02-04T03:10:32.243Z,12.18
2023-02-04T03:13:00.148Z,12.45
2023-02-04T03:15:27.158Z,12.40
2023-02-04T03:17:56.724Z,12.35
2023-02-04T03:20:25.565Z,13.77
2023-02-04T03:22:53.454Z,13.43
2023-02-04T03:25:20.588Z,12.98
2023-02-04T03:27:47.752Z,12.82
2023-02-04T03:30:14.552Z,12.10
2023-02-04T03:32:41.715Z,13.45
2023-02-04T03:35:08.729Z,13.95
2023-02-04T03:37:35.479Z,13.80
2023-02-04T03:40:02.302Z,13.55
2023-02-04T03:42:29.074Z,13.20
2023-02-04T03:44:55.824Z,13.30
2023-02-04T03:47:22.595Z,12.02
2023-02-04T03:49:49.649Z,13.68
2023-02-04T03:52:16.518Z,13.75
2023-02-04T03:54:43.296Z,13.23
2023-02-04T03:57:10.723Z,13.63
2023-02-04T03:59:37.821Z,13.93
2023-02-04T04:02:04.951Z,14.02
2023-02-04T04:04:31.933Z,13.65
2023-02-04T04:06:58.655Z,14.60
2023-02-04T04:09:25.373Z,13.73
2023-02-04T04:11:52.109Z,13.60
2023-02-04T04:14:18.757Z,14.55
2023-02-04T04:16:45.458Z,13.98
2023-02-04T04:19:12.238Z,14.55
2023-02-04T04:21:39.044Z,13.40
2023-02-04T04:24:06.079Z,15.18
2023-02-04T04:26:32.865Z,14.15
2023-02-04T04:28:59.593Z,14.27
2023-02-04T04:31:26.432Z,13.88
2023-02-04T04:33:53.183Z,14.73
2023-02-04T04:36:19.939Z,13.75
2023-02-04T04:38:46.651Z,13.95
2023-02-04T04:41:13.612Z,13.60
2023-02-04T04:43:40.326Z,13.68
2023-02-04T04:46:07.139Z,13.15
2023-02-04T04:48:33.802Z,13.52
2023-02-04T04:51:00.468Z,13.50
2023-02-04T04:53:27.292Z,13.30
2023-02-04T04:55:54.060Z,13.70
2023-02-04T04:58:20.799Z,14.80
2023-02-04T05:00:48.296Z,14.00
2023-02-04T05:03:15.264Z,14.20
2023-02-04T05:05:42.027Z,13.27
2023-02-04T05:08:12.904Z,14.18
2023-02-04T05:10:44.042Z,13.35
2023-02-04T05:13:11.319Z,13.52
2023-02-04T05:15:38.164Z,12.38
2023-02-04T05:18:05.045Z,12.77
2023-02-04T05:20:32.485Z,13.23
2023-02-04T05:23:04.025Z,13.90
2023-02-04T05:25:32.198Z,14.10
2023-02-04T05:27:58.986Z,13.90
2023-02-04T05:30:25.993Z,14.63
2023-02-04T05:32:53.080Z,14.32
2023-02-04T05:35:20.076Z,13.40
2023-02-04T05:37:46.893Z,13.20
2023-02-04T05:40:14.037Z,13.38
2023-02-04T05:42:41.902Z,13.95
2023-02-04T05:45:19.017Z,13.38
2023-02-04T05:47:45.764Z,14.38
2023-02-04T05:50:12.550Z,14.48
2023-02-04T05:52:40.613Z,13.30
2023-02-04T05:55:08.761Z,13.30
2023-02-04T05:57:35.461Z,13.35
2023-02-04T06:00:02.451Z,13.05
2023-02-04T06:02:29.151Z,13.40
2023-02-04T06:04:56.063Z,13.90
2023-02-04T06:07:22.837Z,13.48
2023-02-04T06:09:49.496Z,13.35
2023-02-04T06:12:16.221Z,14.05
2023-02-04T06:14:42.963Z,14.32
2023-02-04T06:17:09.760Z,14.65
2023-02-04T06:19:36.473Z,14.40
2023-02-04T06:22:03.176Z,13.85
2023-02-04T06:24:30.069Z,13.88
2023-02-04T06:26:56.754Z,14.65
2023-02-04T06:29:23.482Z,14.50
2023-02-04T06:31:50.312Z,12.93
2023-02-04T06:34:17.084Z,14.07
2023-02-04T06:36:44.033Z,12.65
2023-02-04T06:39:10.824Z,13.15
2023-02-04T06:41:37.564Z,13.43
2023-02-04T06:44:04.570Z,12.95
2023-02-04T06:46:31.332Z,12.35
2023-02-04T06:48:58.109Z,13.15
2023-02-04T06:51:24.912Z,13.23
2023-02-04T06:53:52.575Z,12.25
2023-02-04T06:56:19.316Z,12.73
2023-02-04T06:58:46.077Z,13.57
2023-02-04T07:01:12.830Z,12.93
2023-02-04T07:03:39.498Z,13.25
2023-02-04T07:06:06.363Z,12.48
2023-02-04T07:08:33.822Z,13.00
2023-02-04T07:11:00.607Z,12.38
2023-02-04T07:13:27.530Z,13.57
2023-02-04T07:15:54.276Z,13.18
2023-02-04T07:18:21.363Z,13.52
2023-02-04T07:20:48.151Z,13.05
2023-02-04T07:23:14.857Z,13.32
2023-02-04T07:25:41.551Z,13.23
2023-02-04T07:28:08.651Z,13.23
2023-02-04T07:30:35.848Z,13.43
2023-02-04T07:33:02.722Z,13.48
2023-02-04T07:35:29.538Z,12.27
2023-02-04T07:37:56.236Z,12.38
2023-02-04T07:40:22.927Z,12.50
2023-02-04T07:42:49.674Z,13.25
2023-02-04T07:45:16.506Z,12.35
2023-02-04T07:47:43.310Z,12.55
2023-02-04T07:50:10.508Z,12.13
2023-02-04T07:52:37.262Z,12.88
2023-02-04T07:55:04.290Z,12.95
2023-02-04T07:57:31.238Z,12.95
2023-02-04T07:59:57.933Z,13.23
2023-02-04T08:02:24.750Z,12.43
2023-02-04T08:04:51.518Z,12.68
2023-02-04T08:07:18.557Z,12.45
2023-02-04T08:09:46.892Z,12.82
2023-02-04T08:12:13.693Z,12.25
2023-02-04T08:14:40.426Z,12.10
2023-02-04T08:17:07.182Z,13.20
2023-02-04T08:19:33.928Z,11.63
2023-02-04T08:22:00.620Z,12.05
2023-02-04T08:24:27.332Z,12.52
2023-02-04T08:26:54.096Z,12.27
2023-02-04T08:29:20.902Z,13.68
2023-02-04T08:31:47.821Z,11.48
2023-02-04T08:34:14.866Z,12.70
2023-02-04T08:36:41.675Z,12.65
2023-02-04T08:39:08.407Z,11.40
2023-02-04T08:41:35.336Z,11.73
2023-02-04T08:44:02.031Z,12.73
2023-02-04T08:46:28.874Z,11.18
2023-02-04T08:48:55.949Z,11.18
2023-02-04T08:51:22.734Z,9.95
2023-02-04T08:53:49.687Z,11.50
2023-02-04T08:56:18.073Z,12.70
2023-02-04T08:58:45.291Z,12.65
2023-02-04T09:01:12.707Z,12.18
2023-02-04T09:03:39.983Z,11.93
2023-02-04T09:06:08.822Z,10.82
2023-02-04T09:08:35.858Z,11.32
2023-02-04T09:11:03.126Z,10.15
2023-02-04T09:13:30.019Z,8.65
2023-02-04T09:15:56.954Z,8.25
2023-02-04T09:18:25.558Z,7.60
2023-02-04T09:20:53.071Z,8.15
2023-02-04T09:23:19.904Z,7.78
2023-02-04T09:25:46.984Z,7.90
2023-02-04T09:28:17.004Z,6.95
2023-02-04T09:30:45.826Z,6.88
2023-02-04T09:33:14.238Z,3.40
2023-02-04T09:35:41.103Z,2.55
2023-02-04T09:38:07.943Z,1.60
2023-02-04T09:40:38.611Z,1.20
2023-02-04T09:43:07.031Z,1.05
2023-02-04T09:45:35.436Z,0.57
2023-02-04T09:48:07.495Z,0.57
2023-02-04T09:50:35.238Z,0.40
2023-02-04T09:53:04.707Z,0.68
2023-02-04T09:55:37.991Z,0.40
2023-02-04T09:58:18.680Z,0.80
2023-02-04T10:00:48.644Z,0.70
2023-02-04T10:03:18.306Z,0.75
2023-02-04T10:05:46.733Z,0.60
2023-02-04T10:08:19.763Z,0.50
2023-02-04T10:10:49.020Z,0.47
2023-02-04T10:13:22.895Z,0.57
2023-02-04T10:15:50.973Z,0.40
2023-02-04T10:18:30.082Z,0.70
2023-02-04T10:21:08.866Z,0.77
2023-02-04T10:23:35.815Z,0.50
2023-02-04T10:26:04.184Z,0.60
2023-02-04T10:28:38.449Z,0.50
2023-02-04T10:31:05.399Z,0.40
2023-02-04T10:33:33.176Z,0.28
2023-02-04T10:36:00.214Z,0.40
2023-02-04T10:38:27.042Z,0.30
2023-02-04T10:41:04.608Z,0.30
2023-02-04T10:43:31.844Z,0.30
2023-02-04T10:46:01.995Z,0.40
2023-02-04T10:48:31.173Z,0.50
2023-02-04T10:50:59.120Z,1.30
2023-02-04T10:53:45.403Z,3.97
2023-02-04T10:56:17.932Z,4.22
2023-02-04T10:58:45.001Z,2.55
2023-02-04T11:01:13.656Z,3.15
2023-02-04T11:03:41.955Z,2.85
2023-02-04T11:06:13.387Z,0.60
2023-02-04T11:08:40.738Z,0.60
2023-02-04T11:11:20.729Z,0.70
2023-02-04T11:13:50.710Z,0.55
2023-02-04T11:16:17.688Z,0.50
2023-02-04T11:18:54.936Z,0.40
2023-02-04T11:21:21.684Z,0.40
2023-02-04T11:23:49.280Z,0.40
2023-02-04T11:26:20.247Z,0.30
2023-02-04T11:28:49.345Z,0.30
2023-02-04T11:31:21.989Z,0.30
2023-02-04T11:33:50.992Z,0.30
2023-02-04T11:36:18.102Z,0.30
2023-02-04T11:38:49.935Z,0.30
2023-02-04T11:41:31.679Z,0.60
2023-02-04T11:43:58.633Z,0.50
2023-02-04T11:46:29.224Z,0.50
2023-02-04T11:48:57.837Z,0.40
2023-02-04T11:51:31.338Z,0.45
2023-02-04T11:53:58.400Z,0.30
2023-02-04T11:56:29.585Z,0.40
2023-02-04T11:58:58.254Z,0.40
2023-02-04T12:01:33.364Z,0.40
2023-02-04T12:04:02.206Z,0.40
2023-02-04T12:06:33.087Z,0.35
2023-02-04T12:09:27.123Z,0.55
2023-02-04T12:12:03.949Z,0.50
2023-02-04T12:14:35.344Z,0.63
2023-02-04T12:17:12.751Z,0.50
2023-02-04T12:19:39.486Z,0.60
2023-02-04T12:22:06.181Z,0.73
2023-02-04T12:24:32.942Z,0.40
2023-02-04T12:26:59.648Z,0.30
2023-02-04T12:29:26.381Z,0.35
2023-02-04T12:31:53.242Z,0.57
2023-02-04T12:34:20.341Z,0.30
2023-02-04T12:36:47.047Z,0.60
2023-02-04T12:39:13.745Z,0.40
2023-02-04T12:41:40.658Z,0.30
2023-02-04T12:44:07.394Z,0.30
2023-02-04T12:46:34.157Z,0.50
2023-02-04T12:49:00.937Z,0.70
2023-02-04T12:51:27.774Z,0.50
2023-02-04T12:53:54.445Z,0.40
2023-02-04T12:56:23.664Z,0.30
2023-02-04T12:58:50.324Z,0.60
2023-02-04T13:01:16.989Z,0.40
2023-02-04T13:03:43.793Z,0.60
2023-02-04T13:06:10.561Z,0.38
2023-02-04T13:08:37.320Z,0.50
2023-02-04T13:11:04.185Z,0.43
2023-02-04T13:13:30.846Z,0.77
2023-02-04T13:15:57.549Z,0.70
2023-02-04T13:18:24.333Z,0.45
2023-02-04T13:20:51.044Z,1.15
2023-02-04T13:23:17.754Z,0.40
2023-02-04T13:25:45.261Z,0.60
2023-02-04T13:28:12.095Z,0.50
2023-02-04T13:30:38.896Z,0.50
2023-02-04T13:33:05.705Z,0.70
2023-02-04T13:35:34.249Z,0.60
2023-02-04T13:38:01.127Z,0.57
2023-02-04T13:40:27.999Z,0.50
2023-02-04T13:42:54.814Z,0.40
2023-02-04T13:45:21.573Z,0.50
2023-02-04T13:47:48.881Z,0.40
2023-02-04T13:50:16.697Z,0.43
2023-02-04T13:52:43.597Z,0.50
2023-02-04T13:55:10.987Z,0.50
2023-02-04T13:57:38.016Z,0.57
2023-02-04T14:00:07.286Z,0.40
2023-02-04T14:02:34.664Z,0.40
2023-02-04T14:05:01.700Z,0.55
2023-02-04T14:07:28.575Z,0.40
2023-02-04T14:09:55.314Z,0.30
2023-02-04T14:12:22.131Z,0.40
2023-02-04T14:14:48.816Z,0.28
2023-02-04T14:17:15.757Z,0.40
2023-02-04T14:19:42.648Z,0.40
2023-02-04T14:22:12.927Z,0.30
2023-02-04T14:24:42.453Z,0.38
2023-02-04T14:27:10.314Z,0.50
2023-02-04T14:29:37.070Z,0.40
2023-02-04T14:32:04.407Z,0.50
2023-02-04T14:34:31.324Z,0.50
2023-02-04T14:36:58.061Z,0.73
2023-02-04T14:39:24.919Z,0.40
2023-02-04T14:41:51.636Z,0.30
2023-02-04T14:44:20.704Z,0.30
2023-02-04T14:46:49.127Z,0.40
2023-02-04T14:49:16.998Z,0.30
2023-02-04T14:51:44.023Z,0.55
2023-02-04T14:54:11.161Z,0.20
2023-02-04T14:56:37.923Z,0.40
2023-02-04T14:59:06.039Z,1.00
2023-02-04T15:01:32.803Z,0.38
2023-02-04T15:03:59.659Z,0.40
2023-02-04T15:06:26.389Z,0.80
2023-02-04T15:08:53.378Z,0.75
2023-02-04T15:11:20.160Z,0.52
2023-02-04T15:13:46.880Z,0.55
2023-02-04T15:16:14.832Z,0.60
2023-02-04T15:18:42.326Z,0.50
2023-02-04T15:21:09.702Z,0.45
2023-02-04T15:23:36.506Z,0.60
2023-02-04T15:26:03.484Z,0.40
2023-02-04T15:28:31.378Z,0.60
2023-02-04T15:30:58.721Z,0.32
2023-02-04T15:33:25.641Z,0.38
2023-02-04T15:35:52.364Z,0.70
2023-02-04T15:38:19.156Z,0.50
2023-02-04T15:40:45.883Z,1.20
2023-02-04T15:43:12.699Z,0.73
2023-02-04T15:45:41.747Z,0.52
2023-02-04T15:48:08.758Z,0.68
2023-02-04T15:50:36.207Z,0.55
2023-02-04T15:53:03.852Z,0.52
2023-02-04T15:55:30.752Z,0.63
2023-02-04T15:57:57.491Z,1.15
2023-02-04T16:00:25.165Z,0.85
2023-02-04T16:02:51.962Z,0.50
2023-02-04T16:05:18.798Z,0.60
2023-02-04T16:07:45.619Z,0.40
2023-02-04T16:10:12.431Z,0.73
2023-02-04T16:12:39.149Z,0.50
2023-02-04T16:15:06.367Z,0.60
2023-02-04T16:17:33.063Z,0.50
2023-02-04T16:19:59.863Z,0.65
2023-02-04T16:22:26.647Z,0.80
2023-02-04T16:24:53.466Z,0.50
2023-02-04T16:27:20.398Z,0.50
2023-02-04T16:29:47.501Z,0.38
2023-02-04T16:32:15.426Z,0.60
2023-02-04T16:34:42.092Z,0.50
2023-02-04T16:37:09.011Z,0.35
2023-02-04T16:39:38.904Z,0.65
2023-02-04T16:42:10.294Z,0.70
2023-02-04T16:44:37.903Z,0.60
2023-02-04T16:47:08.931Z,0.50
2023-02-04T16:49:36.061Z,0.60
2023-02-04T16:52:05.066Z,0.50
2023-02-04T16:54:32.401Z,0.68
2023-02-04T16:57:03.697Z,0.77
2023-02-04T16:59:32.011Z,0.65
2023-02-04T17:02:00.441Z,0.60
2023-02-04T17:04:28.276Z,0.55
2023-02-04T17:06:55.030Z,0.80
2023-02-04T17:09:21.788Z,0.60
2023-02-04T17:11:48.843Z,1.40
2023-02-04T17:14:16.002Z,0.68
2023-02-04T17:16:43.994Z,0.65
2023-02-04T17:19:11.632Z,0.88
2023-02-04T17:21:39.276Z,0.55
2023-02-04T17:24:07.468Z,0.60
2023-02-04T17:26:39.710Z,0.57
2023-02-04T17:29:10.924Z,0.50
2023-02-04T17:31:38.368Z,0.50
2023-02-04T17:34:05.726Z,0.75
2023-02-04T17:36:32.773Z,0.60
2023-02-04T17:38:59.512Z,0.57
2023-02-04T17:41:26.597Z,0.70
2023-02-04T17:43:53.831Z,0.40
2023-02-04T17:46:20.836Z,0.98
2023-02-04T17:48:47.994Z,0.73
2023-02-04T17:51:14.848Z,0.60
2023-02-04T17:53:41.858Z,0.52
2023-02-04T17:56:13.630Z,0.50
2023-02-04T17:58:41.808Z,0.70
2023-02-04T18:01:14.921Z,0.70
2023-02-04T18:03:46.437Z,0.30
2023-02-04T18:06:29.034Z,0.50
2023-02-04T18:09:01.533Z,0.70
2023-02-04T18:11:35.991Z,0.52
2023-02-04T18:14:12.294Z,0.60
2023-02-04T18:16:40.194Z,0.65
2023-02-04T18:19:20.801Z,0.77
2023-02-04T18:21:49.718Z,0.57
2023-02-04T18:24:32.479Z,0.68
2023-02-04T18:27:24.490Z,0.70
2023-02-04T18:29:55.485Z,0.60
2023-02-04T18:32:26.453Z,0.77
2023-02-04T18:34:55.178Z,0.50
2023-02-04T18:37:35.534Z,0.40
2023-02-04T18:40:11.641Z,0.65
2023-02-04T18:42:40.632Z,2.10
2023-02-04T18:45:31.535Z,3.60
2023-02-04T18:48:16.303Z,3.70
2023-02-04T18:50:44.309Z,5.05
2023-02-04T18:53:10.972Z,11.68
2023-02-04T18:55:40.219Z,15.43
2023-02-04T18:58:35.642Z,22.08
2023-02-04T19:01:10.485Z,41.00
2023-02-04T19:03:46.476Z,46.85
2023-02-04T19:06:27.605Z,59.33
2023-02-04T19:09:12.497Z,65.63
2023-02-04T19:11:46.803Z,67.30
2023-02-04T19:14:37.368Z,66.55
2023-02-04T19:17:36.067Z,67.93
2023-02-04T19:20:19.716Z,67.75
2023-02-04T19:22:50.489Z,67.20
2023-02-04T19:25:24.329Z,70.55
2023-02-04T19:27:56.499Z,70.05
2023-02-04T19:30:29.219Z,69.05
2023-02-04T19:32:57.585Z,71.57
2023-02-04T19:35:27.278Z,73.13
2023-02-04T19:37:55.989Z,71.40
2023-02-04T19:40:37.144Z,72.57
2023-02-04T19:43:22.253Z,73.25
2023-02-04T19:45:53.534Z,72.53
2023-02-04T19:48:27.950Z,71.93
2023-02-04T19:50:55.123Z,76.05
2023-02-04T19:53:25.791Z,71.72
2023-02-04T19:55:53.302Z,74.03
2023-02-04T19:58:24.436Z,71.90
2023-02-04T20:01:01.297Z,74.60
2023-02-04T20:03:35.974Z,73.55
2023-02-04T20:06:29.785Z,75.15
2023-02-04T20:09:22.934Z,72.47
2023-02-04T20:12:00.408Z,69.40
2023-02-04T20:14:37.077Z,72.20
2023-02-04T20:17:28.562Z,71.53
2023-02-04T20:19:59.639Z,73.90
2023-02-04T20:22:46.074Z,70.82
2023-02-04T20:25:34.381Z,69.25
2023-02-04T20:28:13.810Z,69.25
2023-02-04T20:30:40.950Z,71.35
2023-02-04T20:33:32.254Z,71.03
2023-02-04T20:36:20.796Z,71.07
2023-02-04T20:38:47.587Z,69.20
2023-02-04T20:41:19.991Z,68.45
2023-02-04T20:43:49.780Z,71.78
2023-02-04T20:46:26.270Z,67.85
2023-02-04T20:48:53.097Z,66.95
2023-02-04T20:51:24.593Z,67.30
2023-02-04T20:53:58.252Z,66.93
2023-02-04T20:56:29.725Z,67.80
2023-02-04T20:59:14.363Z,68.88
2023-02-04T21:01:50.025Z,64.90
2023-02-04T21:06:46.717Z,65.25
2023-02-04T21:09:27.282Z,66.30
2023-02-04T21:11:55.696Z,67.88
2023-02-04T21:14:23.215Z,65.80
2023-02-04T21:16:50.854Z,68.53
2023-02-04T21:19:17.680Z,67.03
2023-02-04T21:21:44.661Z,66.32
2023-02-04T21:24:11.528Z,67.28
2023-02-04T21:26:38.276Z,68.13
2023-02-04T21:29:05.038Z,63.25
2023-02-04T21:31:32.073Z,62.55
2023-02-04T21:33:58.904Z,62.75
2023-02-04T21:36:27.866Z,66.82
2023-02-04T21:38:55.759Z,63.58
2023-02-04T21:41:23.067Z,63.92
2023-02-04T21:43:50.828Z,62.90
2023-02-04T21:46:18.703Z,60.55
2023-02-04T21:48:45.677Z,58.70
2023-02-04T21:51:13.875Z,59.50
2023-02-04T21:53:41.002Z,56.97
2023-02-04T21:56:08.912Z,54.33
2023-02-04T21:58:36.453Z,52.65
2023-02-04T22:01:03.252Z,52.28
2023-02-04T22:03:30.077Z,47.55
2023-02-04T22:05:56.811Z,44.67
2023-02-04T22:08:23.953Z,42.63
2023-02-04T22:10:50.697Z,41.58
2023-02-04T22:13:17.456Z,37.63
2023-02-04T22:15:44.416Z,37.28
2023-02-04T22:18:12.112Z,36.80
2023-02-04T22:20:39.583Z,32.88
2023-02-04T22:23:06.704Z,32.38
2023-02-04T22:25:33.735Z,30.00
2023-02-04T22:28:00.708Z,28.48
2023-02-04T22:30:27.584Z,28.00
2023-02-04T22:32:55.722Z,26.67
2023-02-04T22:35:22.715Z,26.85
2023-02-04T22:37:49.628Z,27.10
2023-02-04T22:40:16.491Z,24.83
2023-02-04T22:42:43.330Z,24.25
2023-02-04T22:45:10.433Z,22.48
2023-02-04T22:47:37.248Z,23.40
2023-02-04T22:50:04.232Z,24.35
2023-02-04T22:52:31.014Z,22.83
2023-02-04T22:54:57.835Z,23.02
2023-02-04T22:57:24.568Z,22.95
2023-02-04T22:59:51.367Z,21.92
2023-02-04T23:02:18.206Z,21.08
2023-02-04T23:04:44.937Z,21.23
2023-02-04T23:07:13.009Z,20.75
2023-02-04T23:09:40.089Z,19.13
2023-02-04T23:12:13.000Z,19.55
2023-02-04T23:14:41.674Z,18.25
2023-02-04T23:17:09.148Z,18.58
2023-02-04T23:19:35.963Z,17.50
2023-02-04T23:22:03.158Z,17.73
2023-02-04T23:24:30.932Z,16.88
2023-02-04T23:27:00.090Z,16.67
2023-02-04T23:29:32.249Z,16.02
2023-02-04T23:31:59.500Z,16.55
2023-02-04T23:34:26.226Z,15.63
2023-02-04T23:36:53.311Z,14.70
2023-02-04T23:39:20.753Z,14.65
2023-02-04T23:41:48.658Z,13.40
2023-02-04T23:44:15.856Z,13.35
2023-02-04T23:46:42.853Z,12.55
2023-02-04T23:49:09.989Z,12.65
2023-02-04T23:51:37.127Z,12.25
2023-02-04T23:54:04.437Z,12.38
2023-02-04T23:56:31.172Z,11.43
2023-02-04T23:58:58.149Z,10.77
